Time;durP1;ratioP1;P1;durP2;ratioP2;P2;SDS_P1;SDS_P2;PMS_P1;PMS_P2;Temp;Humidity;BMP_temperature;BMP_pressure;BME280_temperature;BME280_humidity;BME280_pressure;Samples;Min_cycle;Max_cycle;Signal;HPM_P1;HPM_P2
2023/07/12 00:00:48;;;;;;;21.83;14.27;;;;;;;-140.66;100.00;55571.53;5115629;28;20028;-74
2023/07/12 00:03:34;;;;;;;21.85;13.38;;;;;;;-140.66;100.00;55571.53;5116337;28;20110;-74
2023/07/12 00:06:34;;;;;;;16.25;13.68;;;;;;;-140.66;100.00;55571.53;5115297;28;20031;-74
2023/07/12 00:09:19;;;;;;;19.25;14.45;;;;;;;-140.66;100.00;55571.53;5115384;28;20024;-73
2023/07/12 00:12:06;;;;;;;22.50;15.32;;;;;;;-140.66;100.00;55571.53;5115030;28;20068;-73
2023/07/12 00:14:51;;;;;;;20.60;15.10;;;;;;;-140.66;100.00;55571.53;5115296;28;20036;-73
2023/07/12 00:17:37;;;;;;;22.38;14.75;;;;;;;-140.66;100.00;55571.53;5113711;28;20035;-73
2023/07/12 00:20:34;;;;;;;19.45;14.25;;;;;;;-140.66;100.00;55571.53;5114975;28;20125;-73
2023/07/12 00:23:20;;;;;;;19.58;14.32;;;;;;;-140.66;100.00;55571.53;5115240;28;20023;-74
2023/07/12 00:26:36;;;;;;;20.70;14.35;;;;;;;-140.66;100.00;55571.53;5115225;28;20443;-74
2023/07/12 00:29:21;;;;;;;19.40;14.48;;;;;;;-140.66;100.00;55571.53;5100874;28;20038;-74
2023/07/12 00:32:08;;;;;;;17.58;13.60;;;;;;;-140.66;100.00;55571.53;5114890;28;20363;-73
2023/07/12 00:34:55;;;;;;;18.35;13.63;;;;;;;-140.66;100.00;55571.53;5099672;28;20051;-74
2023/07/12 00:37:40;;;;;;;20.38;15.25;;;;;;;-140.66;100.00;55571.53;5114819;28;20039;-73
2023/07/12 00:40:41;;;;;;;25.13;15.57;;;;;;;-140.66;100.00;55571.53;5115031;28;20106;-73
2023/07/12 00:43:39;;;;;;;20.80;15.10;;;;;;;-140.66;100.00;55571.53;5114796;28;20078;-73
2023/07/12 00:46:24;;;;;;;21.63;14.90;;;;;;;-140.66;100.00;55571.53;5115217;28;20027;-73
2023/07/12 00:49:10;;;;;;;22.75;15.43;;;;;;;-140.66;100.00;55571.53;5114174;28;20024;-73
2023/07/12 00:52:04;;;;;;;17.88;14.23;;;;;;;-140.66;100.00;55571.53;5114219;28;20111;-74
2023/07/12 00:54:54;;;;;;;18.40;14.30;;;;;;;-140.66;100.00;55571.53;5114293;28;20023;-74
2023/07/12 00:57:40;;;;;;;21.38;15.05;;;;;;;-140.66;100.00;55571.53;5115753;28;20042;-74
2023/07/12 01:00:25;;;;;;;21.35;15.38;;;;;;;-140.66;100.00;55571.53;5114239;28;20028;-73
2023/07/12 01:03:13;;;;;;;18.60;14.25;;;;;;;-140.66;100.00;55571.53;5114249;28;20508;-73
2023/07/12 01:05:59;;;;;;;18.13;13.38;;;;;;;-140.66;100.00;55571.53;5114398;28;20031;-74
2023/07/12 01:08:45;;;;;;;19.10;14.13;;;;;;;-140.66;100.00;55571.53;5099961;28;20309;-74
2023/07/12 01:11:31;;;;;;;21.40;14.40;;;;;;;-140.66;100.00;55571.53;5114925;28;20080;-74
2023/07/12 01:14:17;;;;;;;18.95;14.43;;;;;;;-140.66;100.00;55571.53;5117868;28;20015;-73
2023/07/12 01:17:05;;;;;;;21.23;15.65;;;;;;;-140.66;100.00;55571.53;5132970;28;20055;-74
2023/07/12 01:19:51;;;;;;;26.45;16.27;;;;;;;-140.66;100.00;55571.53;5130561;28;20059;-74
2023/07/12 01:22:37;;;;;;;19.48;14.93;;;;;;;-140.66;100.00;55571.53;5127059;28;20030;-74
2023/07/12 01:25:38;;;;;;;17.50;13.85;;;;;;;-140.66;100.00;55571.53;5115329;28;20027;-74
2023/07/12 01:28:24;;;;;;;19.85;14.68;;;;;;;-140.66;100.00;55571.53;5115436;28;20040;-73
2023/07/12 01:31:10;;;;;;;20.17;14.50;;;;;;;-140.66;100.00;55571.53;5115046;28;20518;-74
2023/07/12 01:33:57;;;;;;;18.70;14.20;;;;;;;-140.66;100.00;55571.53;5115889;28;20032;-74
2023/07/12 01:36:43;;;;;;;15.88;13.73;;;;;;;-140.66;100.00;55571.53;5114620;28;20016;-75
2023/07/12 01:39:29;;;;;;;17.70;12.75;;;;;;;-140.66;100.00;55571.53;5099185;28;20055;-74
2023/07/12 01:42:15;;;;;;;15.57;12.98;;;;;;;-140.66;100.00;55571.53;5114354;28;20024;-74
2023/07/12 01:45:00;;;;;;;17.70;12.10;;;;;;;-140.66;100.00;55571.53;5114223;28;20102;-73
2023/07/12 01:47:46;;;;;;;18.13;12.40;;;;;;;-140.66;100.00;55571.53;5113988;28;20363;-73
2023/07/12 01:50:32;;;;;;;16.30;12.07;;;;;;;-140.66;100.00;55571.53;5113951;28;20024;-74
2023/07/12 01:53:18;;;;;;;17.98;12.23;;;;;;;-140.66;100.00;55571.53;5114384;28;20019;-74
2023/07/12 01:56:05;;;;;;;14.77;11.30;;;;;;;-140.66;100.00;55571.53;5118739;28;20043;-73
2023/07/12 01:58:50;;;;;;;17.38;12.38;;;;;;;-140.66;100.00;55571.53;5124719;28;20056;-74
2023/07/12 02:01:36;;;;;;;17.48;12.57;;;;;;;-140.66;100.00;55571.53;5122426;28;20526;-74
2023/07/12 02:04:22;;;;;;;17.27;12.35;;;;;;;-140.66;100.00;55571.53;5103327;28;20451;-74
2023/07/12 02:07:07;;;;;;;16.35;12.05;;;;;;;-140.66;100.00;55571.53;5117835;28;20038;-73
2023/07/12 02:10:13;;;;;;;16.95;13.52;;;;;;;-140.66;100.00;55571.53;5118279;28;20028;-74
2023/07/12 02:12:59;;;;;;;17.02;13.05;;;;;;;-140.66;100.00;55571.53;5103203;28;20420;-73
2023/07/12 02:15:44;;;;;;;19.38;14.32;;;;;;;-140.66;100.00;55571.53;5116901;28;20039;-74
2023/07/12 02:18:30;;;;;;;18.38;13.43;;;;;;;-140.66;100.00;55571.53;5102744;28;20355;-74
2023/07/12 02:21:16;;;;;;;18.90;13.68;;;;;;;-140.66;100.00;55571.53;5116495;28;20031;-74
2023/07/12 02:24:02;;;;;;;16.95;13.27;;;;;;;-140.66;100.00;55571.53;5117879;28;20024;-74
2023/07/12 02:26:48;;;;;;;16.05;13.05;;;;;;;-140.66;100.00;55571.53;5101960;28;20073;-74
2023/07/12 02:29:34;;;;;;;19.15;13.15;;;;;;;-140.66;100.00;55571.53;5117606;28;20114;-74
2023/07/12 02:32:23;;;;;;;16.08;12.98;;;;;;;-140.66;100.00;55571.53;5116290;28;20027;-74
2023/07/12 02:35:09;;;;;;;20.52;13.93;;;;;;;-140.66;100.00;55571.53;5116739;28;20406;-75
2023/07/12 02:37:56;;;;;;;16.15;12.25;;;;;;;-140.66;100.00;55571.53;5116472;28;20023;-73
2023/07/12 02:40:42;;;;;;;14.80;12.18;;;;;;;-140.66;100.00;55571.53;5116714;28;20322;-74
2023/07/12 02:43:27;;;;;;;15.35;11.45;;;;;;;-140.66;100.00;55571.53;5117334;28;20038;-73
2023/07/12 02:46:13;;;;;;;17.25;11.43;;;;;;;-140.66;100.00;55571.53;5101733;28;20333;-73
2023/07/12 02:48:59;;;;;;;16.15;11.40;;;;;;;-140.66;100.00;55571.53;5117250;28;20028;-74
2023/07/12 02:51:45;;;;;;;15.07;10.57;;;;;;;-140.66;100.00;55571.53;5116732;28;20032;-73
2023/07/12 02:54:31;;;;;;;14.70;10.63;;;;;;;-140.66;100.00;55571.53;5117049;28;20110;-73
2023/07/12 02:57:17;;;;;;;15.23;10.98;;;;;;;-140.66;100.00;55571.53;5117135;28;20023;-73
2023/07/12 03:00:03;;;;;;;18.25;10.60;;;;;;;-140.66;100.00;55571.53;5116683;28;20046;-74
2023/07/12 03:02:49;;;;;;;13.95;10.13;;;;;;;-140.66;100.00;55571.53;5102322;28;20122;-74
2023/07/12 03:05:39;;;;;;;13.10;10.20;;;;;;;-140.66;100.00;55571.53;5117299;28;20333;-74
2023/07/12 03:08:26;;;;;;;12.35;9.95;;;;;;;-140.66;100.00;55571.53;5114918;28;20355;-75
2023/07/12 03:11:12;;;;;;;12.38;10.30;;;;;;;-140.66;100.00;55571.53;5116918;28;20470;-74
2023/07/12 03:13:58;;;;;;;14.80;10.15;;;;;;;-140.66;100.00;55571.53;5115798;28;20032;-74
2023/07/12 03:16:45;;;;;;;14.05;10.15;;;;;;;-140.66;100.00;55571.53;5101748;28;20031;-74
2023/07/12 03:19:31;;;;;;;16.50;10.27;;;;;;;-140.66;100.00;55571.53;5115693;28;20043;-74
2023/07/12 03:22:16;;;;;;;13.90;9.65;;;;;;;-140.66;100.00;55571.53;5116602;28;20039;-74
2023/07/12 03:25:02;;;;;;;14.70;10.48;;;;;;;-140.66;100.00;55571.53;5116424;28;20023;-74
2023/07/12 03:27:50;;;;;;;14.77;10.20;;;;;;;-140.66;100.00;55571.53;5116475;28;20029;-73
2023/07/12 03:30:36;;;;;;;12.02;9.57;;;;;;;-140.66;100.00;55571.53;5101740;28;20028;-74
2023/07/12 03:33:23;;;;;;;12.95;9.63;;;;;;;-140.66;100.00;55571.53;5115963;28;20074;-74
2023/07/12 03:36:09;;;;;;;14.45;9.77;;;;;;;-140.66;100.00;55571.53;5115276;28;20106;-74
2023/07/12 03:38:55;;;;;;;13.45;9.57;;;;;;;-140.66;100.00;55571.53;5115272;28;20092;-74
2023/07/12 03:41:41;;;;;;;15.60;10.40;;;;;;;-140.66;100.00;55571.53;5115253;28;20027;-74
2023/07/12 03:44:27;;;;;;;13.25;9.77;;;;;;;-140.66;100.00;55571.53;5100883;28;20448;-73
2023/07/12 03:47:12;;;;;;;12.52;9.80;;;;;;;-140.66;100.00;55571.53;5102606;28;20069;-75
2023/07/12 03:49:58;;;;;;;13.00;9.13;;;;;;;-140.66;100.00;55571.53;5115430;28;20522;-74
2023/07/12 03:52:44;;;;;;;16.13;9.57;;;;;;;-140.66;100.00;55571.53;5115775;28;20042;-73
2023/07/12 03:55:30;;;;;;;15.18;10.52;;;;;;;-140.66;100.00;55571.53;5115338;28;20023;-73
2023/07/12 03:58:19;;;;;;;14.40;10.43;;;;;;;-140.66;100.00;55571.53;5113857;28;20371;-73
2023/07/12 04:01:09;;;;;;;14.13;10.15;;;;;;;-140.66;100.00;55571.53;5115183;28;20066;-73
2023/07/12 04:03:55;;;;;;;13.23;10.25;;;;;;;-140.66;100.00;55571.53;5101251;28;20347;-74
2023/07/12 04:06:41;;;;;;;15.45;10.75;;;;;;;-140.66;100.00;55571.53;5115808;28;20039;-75
2023/07/12 04:09:27;;;;;;;12.93;10.30;;;;;;;-140.66;100.00;55571.53;5114441;28;20110;-73
2023/07/12 04:12:13;;;;;;;15.60;9.82;;;;;;;-140.66;100.00;55571.53;5099591;28;20480;-73
2023/07/12 04:15:00;;;;;;;17.60;10.93;;;;;;;-140.66;100.00;55571.53;5115790;28;20036;-73
2023/07/12 04:17:46;;;;;;;14.65;11.40;;;;;;;-140.66;100.00;55571.53;5115417;28;20084;-73
2023/07/12 04:20:37;;;;;;;15.38;10.82;;;;;;;-140.66;100.00;55571.53;5114775;28;20039;-74
2023/07/12 04:23:23;;;;;;;17.98;10.77;;;;;;;-140.66;100.00;55571.53;5116073;28;20061;-74
2023/07/12 04:26:09;;;;;;;17.40;10.38;;;;;;;-140.66;100.00;55571.53;5115467;28;20031;-75
2023/07/12 04:28:55;;;;;;;14.18;10.68;;;;;;;-140.66;100.00;55571.53;5115712;28;20019;-74
2023/07/12 04:31:41;;;;;;;17.70;10.27;;;;;;;-140.66;100.00;55571.53;5116255;28;20072;-75
2023/07/12 04:34:27;;;;;;;10.75;9.40;;;;;;;-140.66;100.00;55571.53;5115009;28;20047;-74
2023/07/12 04:37:13;;;;;;;14.48;10.57;;;;;;;-140.66;100.00;55571.53;5099965;28;20363;-74
2023/07/12 04:39:58;;;;;;;12.80;9.77;;;;;;;-140.66;100.00;55571.53;5115478;28;20103;-73
2023/07/12 04:42:45;;;;;;;13.50;9.65;;;;;;;-140.66;100.00;55571.53;5115526;28;20102;-74
2023/07/12 04:45:31;;;;;;;14.02;9.45;;;;;;;-140.66;100.00;55571.53;5115656;28;20088;-73
2023/07/12 04:48:17;;;;;;;17.30;10.05;;;;;;;-140.66;100.00;55571.53;5114981;28;20031;-74
2023/07/12 04:51:03;;;;;;;16.77;9.73;;;;;;;-140.66;100.00;55571.53;5114799;28;20031;-74
2023/07/12 04:53:49;;;;;;;13.65;9.63;;;;;;;-140.66;100.00;55571.53;5114977;28;20367;-74
2023/07/12 04:56:34;;;;;;;12.35;10.23;;;;;;;-140.66;100.00;55571.53;5114149;28;20039;-74
2023/07/12 04:59:21;;;;;;;13.40;9.95;;;;;;;-140.66;100.00;55571.53;5114110;28;20417;-73
2023/07/12 05:02:06;;;;;;;15.25;9.35;;;;;;;-140.66;100.00;55571.53;5114644;28;20035;-74
2023/07/12 05:04:52;;;;;;;17.35;10.52;;;;;;;-140.66;100.00;55571.53;5114008;28;20027;-75
2023/07/12 05:07:38;;;;;;;16.52;9.90;;;;;;;-140.66;100.00;55571.53;5113303;28;20483;-73
2023/07/12 05:10:24;;;;;;;15.80;10.30;;;;;;;-140.66;100.00;55571.53;5112862;28;20513;-74
2023/07/12 05:13:11;;;;;;;11.70;9.13;;;;;;;-140.66;100.00;55571.53;5115088;28;20027;-75
2023/07/12 05:15:56;;;;;;;11.70;8.82;;;;;;;-140.66;100.00;55571.53;5114718;28;20024;-75
2023/07/12 05:18:42;;;;;;;15.98;9.90;;;;;;;-140.66;100.00;55571.53;5097674;28;20110;-74
2023/07/12 05:21:28;;;;;;;13.63;8.90;;;;;;;-140.66;100.00;55571.53;5114338;28;20039;-74
2023/07/12 05:24:13;;;;;;;15.10;8.70;;;;;;;-140.66;100.00;55571.53;5114324;28;20051;-73
2023/07/12 05:26:59;;;;;;;17.17;8.60;;;;;;;-140.66;100.00;55571.53;5114482;28;20055;-74
2023/07/12 05:29:45;;;;;;;11.82;8.63;;;;;;;-140.66;100.00;55571.53;5114587;28;20459;-75
2023/07/12 05:32:31;;;;;;;14.75;8.65;;;;;;;-140.66;100.00;55571.53;5118006;28;20467;-73
2023/07/12 05:35:17;;;;;;;12.40;8.27;;;;;;;-140.66;100.00;55571.53;5103408;28;20073;-74
2023/07/12 05:38:03;;;;;;;14.82;8.48;;;;;;;-140.66;100.00;55571.53;5117017;28;20046;-74
2023/07/12 05:40:48;;;;;;;17.27;8.90;;;;;;;-140.66;100.00;55571.53;5103310;28;20027;-75
2023/07/12 05:43:34;;;;;;;13.90;8.15;;;;;;;-140.66;100.00;55571.53;5117901;28;20040;-75
2023/07/12 05:46:20;;;;;;;12.50;8.60;;;;;;;-140.66;100.00;55571.53;5118022;28;20027;-74
2023/07/12 05:49:06;;;;;;;12.85;8.30;;;;;;;-140.66;100.00;55571.53;5117588;28;20420;-74
2023/07/12 05:51:52;;;;;;;9.80;8.63;;;;;;;-140.66;100.00;55571.53;5118018;28;20448;-75
2023/07/12 05:54:38;;;;;;;13.10;9.32;;;;;;;-140.66;100.00;55571.53;5117652;28;20034;-74
2023/07/12 05:57:23;;;;;;;11.57;9.13;;;;;;;-140.66;100.00;55571.53;5117275;28;20024;-74
2023/07/12 06:00:10;;;;;;;11.95;9.38;;;;;;;-140.66;100.00;55571.53;5117479;28;20012;-74
2023/07/12 06:02:56;;;;;;;14.50;9.68;;;;;;;-140.66;100.00;55571.53;5102417;28;20341;-75
2023/07/12 06:05:44;;;;;;;15.57;9.18;;;;;;;-140.66;100.00;55571.53;5117502;28;20337;-74
2023/07/12 06:08:30;;;;;;;14.88;9.70;;;;;;;-140.66;100.00;55571.53;5117495;28;20023;-74
2023/07/12 06:11:15;;;;;;;14.65;10.07;;;;;;;-140.66;100.00;55571.53;5117761;28;20387;-75
2023/07/12 06:14:01;;;;;;;14.73;9.80;;;;;;;-140.66;100.00;55571.53;5119450;28;20050;-73
2023/07/12 06:16:47;;;;;;;14.45;10.10;;;;;;;-140.66;100.00;55571.53;5120373;28;20081;-74
2023/07/12 06:19:33;;;;;;;13.30;10.27;;;;;;;-140.66;100.00;55571.53;5121348;28;20051;-73
2023/07/12 06:22:19;;;;;;;15.38;9.77;;;;;;;-140.66;100.00;55571.53;5122228;28;20031;-73
2023/07/12 06:25:06;;;;;;;14.38;9.75;;;;;;;-140.66;100.00;55571.53;5120269;28;20020;-73
2023/07/12 06:27:51;;;;;;;15.00;9.88;;;;;;;-140.66;100.00;55571.53;5117852;28;20024;-74
2023/07/12 06:30:37;;;;;;;12.57;9.23;;;;;;;-140.66;100.00;55571.53;5101870;28;20174;-74
2023/07/12 06:33:23;;;;;;;15.75;9.88;;;;;;;-140.66;100.00;55571.53;5118129;28;20027;-74
2023/07/12 06:36:09;;;;;;;20.95;9.90;;;;;;;-140.66;100.00;55571.53;5117057;28;20027;-74
2023/07/12 06:38:54;;;;;;;16.45;9.73;;;;;;;-140.66;100.00;55571.53;5117066;28;20047;-74
2023/07/12 06:41:40;;;;;;;10.57;9.07;;;;;;;-140.66;100.00;55571.53;5116901;28;20037;-74
2023/07/12 06:44:26;;;;;;;11.98;8.77;;;;;;;-140.66;100.00;55571.53;5116959;28;20390;-74
2023/07/12 06:47:11;;;;;;;14.73;8.98;;;;;;;-140.66;100.00;55571.53;5116435;28;20414;-74
2023/07/12 06:49:57;;;;;;;13.95;8.70;;;;;;;-140.66;100.00;55571.53;5117427;28;20019;-73
2023/07/12 06:52:43;;;;;;;12.60;9.15;;;;;;;-140.66;100.00;55571.53;5117161;28;20072;-74
2023/07/12 06:55:29;;;;;;;18.30;8.55;;;;;;;-140.66;100.00;55571.53;5116632;28;20100;-73
2023/07/12 06:58:14;;;;;;;9.48;8.40;;;;;;;-140.66;100.00;55571.53;5116470;28;20341;-74
2023/07/12 07:01:00;;;;;;;16.25;9.55;;;;;;;-140.66;100.00;55571.53;5117276;28;20463;-75
2023/07/12 07:03:46;;;;;;;12.75;9.30;;;;;;;-140.66;100.00;55571.53;5116357;28;20336;-74
2023/07/12 07:06:31;;;;;;;11.07;8.50;;;;;;;-140.66;100.00;55571.53;5102280;28;20015;-74
2023/07/12 07:09:17;;;;;;;10.10;8.60;;;;;;;-140.66;100.00;55571.53;5116154;28;20036;-74
2023/07/12 07:12:03;;;;;;;11.48;8.43;;;;;;;-140.66;100.00;55571.53;5116539;28;20027;-74
2023/07/12 07:14:49;;;;;;;12.02;8.95;;;;;;;-140.66;100.00;55571.53;5116876;28;20093;-75
2023/07/12 07:17:35;;;;;;;11.48;8.20;;;;;;;-140.66;100.00;55571.53;5117164;28;20027;-74
2023/07/12 07:20:22;;;;;;;9.15;8.10;;;;;;;-140.66;100.00;55571.53;5115841;28;20126;-75
2023/07/12 07:23:08;;;;;;;9.27;8.23;;;;;;;-140.66;100.00;55571.53;5116857;28;20046;-74
2023/07/12 07:25:54;;;;;;;9.52;7.95;;;;;;;-140.66;100.00;55571.53;5116259;28;20089;-75
2023/07/12 07:28:40;;;;;;;10.32;8.35;;;;;;;-140.66;100.00;55571.53;5101278;28;20023;-74
2023/07/12 07:31:26;;;;;;;14.70;7.68;;;;;;;-140.66;100.00;55571.53;5116086;28;20458;-74
2023/07/12 07:34:12;;;;;;;10.23;7.78;;;;;;;-140.66;100.00;55571.53;5117013;28;20106;-73
2023/07/12 07:36:58;;;;;;;15.40;8.65;;;;;;;-140.66;100.00;55571.53;5115680;28;20058;-73
2023/07/12 07:39:43;;;;;;;12.27;8.68;;;;;;;-140.66;100.00;55571.53;5115874;28;20020;-74
2023/07/12 07:42:29;;;;;;;11.45;8.18;;;;;;;-140.66;100.00;55571.53;5116037;28;20058;-74
2023/07/12 07:45:15;;;;;;;15.70;7.68;;;;;;;-140.66;100.00;55571.53;5115451;28;20085;-74
2023/07/12 07:48:01;;;;;;;10.02;7.85;;;;;;;-140.66;100.00;55571.53;5115888;28;20092;-74
2023/07/12 07:50:47;;;;;;;11.93;8.07;;;;;;;-140.66;100.00;55571.53;5114567;28;20024;-74
2023/07/12 07:53:33;;;;;;;11.45;8.60;;;;;;;-140.66;100.00;55571.53;5114969;28;20032;-75
2023/07/12 07:56:20;;;;;;;10.38;8.27;;;;;;;-140.66;100.00;55571.53;5115632;28;20037;-74
2023/07/12 07:59:06;;;;;;;9.95;8.10;;;;;;;-140.66;100.00;55571.53;5114251;28;20028;-74
2023/07/12 08:01:51;;;;;;;9.07;7.88;;;;;;;-140.66;100.00;55571.53;5116169;28;20055;-75
2023/07/12 08:04:37;;;;;;;9.95;8.20;;;;;;;-140.66;100.00;55571.53;5101231;28;20031;-74
2023/07/12 08:07:23;;;;;;;10.13;7.68;;;;;;;-140.66;100.00;55571.53;5115074;28;20058;-74
2023/07/12 08:10:11;;;;;;;12.30;8.27;;;;;;;-140.66;100.00;55571.53;5115108;28;20028;-74
2023/07/12 08:12:58;;;;;;;11.00;8.20;;;;;;;-140.66;100.00;55571.53;5115388;28;20305;-73
2023/07/12 08:15:43;;;;;;;10.52;8.07;;;;;;;-140.66;100.00;55571.53;5114813;28;20043;-73
2023/07/12 08:18:29;;;;;;;13.75;8.68;;;;;;;-140.66;100.00;55571.53;5115085;28;20028;-74
2023/07/12 08:21:15;;;;;;;13.90;8.55;;;;;;;-140.66;100.00;55571.53;5115084;28;20031;-74
2023/07/12 08:24:01;;;;;;;10.88;8.30;;;;;;;-140.66;100.00;55571.53;5115449;28;20028;-74
2023/07/12 08:26:46;;;;;;;9.90;8.45;;;;;;;-140.66;100.00;55571.53;5115581;28;20038;-74
2023/07/12 08:29:32;;;;;;;10.30;8.48;;;;;;;-140.66;100.00;55571.53;5114291;28;20027;-74
2023/07/12 08:32:18;;;;;;;9.52;7.47;;;;;;;-140.66;100.00;55571.53;5114484;28;20034;-74
2023/07/12 08:35:05;;;;;;;11.00;8.80;;;;;;;-140.66;100.00;55571.53;5115035;28;20034;-74
2023/07/12 08:37:50;;;;;;;12.70;8.10;;;;;;;-140.66;100.00;55571.53;5115013;28;20038;-75
2023/07/12 08:40:44;;;;;;;12.35;8.70;;;;;;;-140.66;100.00;55571.53;5115252;28;20030;-74
2023/07/12 08:43:33;;;;;;;11.30;7.82;;;;;;;-140.66;100.00;55571.53;5115121;28;20031;-75
2023/07/12 08:46:30;;;;;;;13.05;8.80;;;;;;;-140.66;100.00;55571.53;5114712;28;20023;-74
2023/07/12 08:49:17;;;;;;;9.98;8.20;;;;;;;-140.66;100.00;55571.53;5114389;28;20030;-74
2023/07/12 08:52:05;;;;;;;9.88;8.60;;;;;;;-140.66;100.00;55571.53;5114777;28;20024;-74
2023/07/12 08:54:51;;;;;;;12.95;8.75;;;;;;;-140.66;100.00;55571.53;5112910;28;20023;-74
2023/07/12 08:57:38;;;;;;;12.20;8.60;;;;;;;-140.66;100.00;55571.53;5114833;28;20109;-74
2023/07/12 09:00:27;;;;;;;11.90;8.48;;;;;;;-140.66;100.00;55571.53;5115200;28;20055;-74
2023/07/12 09:03:13;;;;;;;12.75;8.60;;;;;;;-140.66;100.00;55571.53;5114462;28;20444;-76
2023/07/12 09:05:59;;;;;;;21.58;9.50;;;;;;;-140.66;100.00;55571.53;5113536;28;20027;-75
2023/07/12 09:08:50;;;;;;;13.52;9.90;;;;;;;-140.66;100.00;55571.53;5113906;28;20367;-73
2023/07/12 09:11:36;;;;;;;12.35;8.75;;;;;;;-140.66;100.00;55571.53;5114481;28;20472;-74
2023/07/12 09:14:24;;;;;;;12.90;8.57;;;;;;;-140.66;100.00;55571.53;5114533;28;20341;-74
2023/07/12 09:17:22;;;;;;;11.63;8.15;;;;;;;-140.66;100.00;55571.53;5115010;28;20031;-74
2023/07/12 09:20:24;;;;;;;14.98;9.00;;;;;;;-140.66;100.00;55571.53;5099300;28;20047;-74
2023/07/12 09:23:11;;;;;;;13.35;8.45;;;;;;;-140.66;100.00;55571.53;5114174;28;20024;-74
2023/07/12 09:25:57;;;;;;;14.52;8.50;;;;;;;-140.66;100.00;55571.53;5114991;28;20023;-74
2023/07/12 09:28:43;;;;;;;12.10;8.48;;;;;;;-140.66;100.00;55571.53;5113774;28;20363;-74
2023/07/12 09:31:29;;;;;;;15.48;9.52;;;;;;;-140.66;100.00;55571.53;5113400;28;20016;-74
2023/07/12 09:34:23;;;;;;;11.88;9.50;;;;;;;-140.66;100.00;55571.53;5114703;28;20034;-75
2023/07/12 09:37:16;;;;;;;11.18;8.95;;;;;;;-140.66;100.00;55571.53;5113528;28;20097;-74
2023/07/12 09:40:03;;;;;;;12.95;9.05;;;;;;;-140.66;100.00;55571.53;5113848;28;20344;-74
2023/07/12 09:42:56;;;;;;;12.27;9.38;;;;;;;-140.66;100.00;55571.53;5113747;28;20097;-74
2023/07/12 09:45:49;;;;;;;12.05;9.25;;;;;;;-140.66;100.00;55571.53;5098558;28;20031;-74
2023/07/12 09:48:55;;;;;;;19.48;8.82;;;;;;;-140.66;100.00;55571.53;5113754;28;20455;-74
2023/07/12 09:51:50;;;;;;;13.23;8.95;;;;;;;-140.66;100.00;55571.53;5114847;28;20055;-74
2023/07/12 09:54:36;;;;;;;22.92;9.20;;;;;;;-140.66;100.00;55571.53;5115294;28;20466;-74
2023/07/12 09:57:41;;;;;;;10.27;8.77;;;;;;;-140.66;100.00;55571.53;5099071;28;20118;-74
2023/07/12 10:00:48;;;;;;;11.98;9.90;;;;;;;-140.66;100.00;55571.53;5099017;28;20020;-74
2023/07/12 10:03:41;;;;;;;12.75;9.38;;;;;;;-140.66;100.00;55571.53;5113696;28;20402;-74
2023/07/12 10:06:31;;;;;;;15.55;8.98;;;;;;;-140.66;100.00;55571.53;5098972;28;20030;-73
2023/07/12 10:09:27;;;;;;;13.90;9.25;;;;;;;-140.66;100.00;55571.53;5099636;28;20045;-74
2023/07/12 10:12:25;;;;;;;12.43;10.07;;;;;;;-140.66;100.00;55571.53;5114345;28;20039;-74
2023/07/12 10:15:14;;;;;;;14.07;9.43;;;;;;;-140.66;100.00;55571.53;5114015;28;20031;-74
2023/07/12 10:18:00;;;;;;;15.25;9.10;;;;;;;-140.66;100.00;55571.53;5101570;28;20042;-74
2023/07/12 10:20:48;;;;;;;13.25;9.10;;;;;;;-140.66;100.00;55571.53;5117871;28;20104;-74
2023/07/12 10:23:43;;;;;;;13.85;9.65;;;;;;;-140.66;100.00;55571.53;5117242;28;20032;-73
2023/07/12 10:26:31;;;;;;;12.77;9.05;;;;;;;-140.66;100.00;55571.53;5117450;28;20107;-74
2023/07/12 10:29:24;;;;;;;13.93;9.48;;;;;;;-140.66;100.00;55571.53;5102496;28;20035;-74
2023/07/12 10:32:21;;;;;;;13.02;9.18;;;;;;;-140.66;100.00;55571.53;5116849;28;20035;-74
2023/07/12 10:35:21;;;;;;;13.10;9.50;;;;;;;-140.66;100.00;55571.53;5117268;28;20024;-74
2023/07/12 10:38:18;;;;;;;12.60;9.35;;;;;;;-140.66;100.00;55571.53;5102529;28;20031;-74
2023/07/12 10:41:07;;;;;;;13.60;9.68;;;;;;;-140.66;100.00;55571.53;5117131;28;20024;-74
2023/07/12 10:44:13;;;;;;;13.80;9.88;;;;;;;-140.66;100.00;55571.53;5101769;28;20108;-74
2023/07/12 10:47:01;;;;;;;13.13;9.75;;;;;;;-140.66;100.00;55571.53;5115732;28;20028;-74
2023/07/12 10:49:52;;;;;;;15.23;9.23;;;;;;;-140.66;100.00;55571.53;5101927;28;20074;-74
2023/07/12 10:53:01;;;;;;;13.85;10.10;;;;;;;-140.66;100.00;55571.53;5117873;28;20364;-74
2023/07/12 10:56:10;;;;;;;13.07;9.20;;;;;;;-140.66;100.00;55571.53;5101147;28;20020;-73
2023/07/12 10:58:58;;;;;;;11.32;9.68;;;;;;;-140.66;100.00;55571.53;5117484;28;20337;-74
2023/07/12 11:01:43;;;;;;;14.27;9.80;;;;;;;-140.66;100.00;55571.53;5116994;28;20076;-74
2023/07/12 11:04:29;;;;;;;12.98;10.30;;;;;;;-140.66;100.00;55571.53;5116700;28;20035;-74
2023/07/12 11:07:14;;;;;;;14.57;10.05;;;;;;;-140.66;100.00;55571.53;5114713;28;20427;-74
2023/07/12 11:10:16;;;;;;;13.55;9.70;;;;;;;-140.66;100.00;55571.53;5102007;28;20462;-74
2023/07/12 11:13:11;;;;;;;12.63;10.63;;;;;;;-140.66;100.00;55571.53;5115500;28;20406;-74
2023/07/12 11:16:17;;;;;;;15.65;10.70;;;;;;;-140.66;100.00;55571.53;5116494;28;20032;-74
2023/07/12 11:19:03;;;;;;;13.65;10.43;;;;;;;-140.66;100.00;55571.53;5101384;28;20120;-74
2023/07/12 11:21:52;;;;;;;15.35;10.98;;;;;;;-140.66;100.00;55571.53;5116809;28;20037;-74
2023/07/12 11:25:04;;;;;;;12.90;10.50;;;;;;;-140.66;100.00;55571.53;5115734;28;20038;-74
2023/07/12 11:27:52;;;;;;;14.18;10.45;;;;;;;-140.66;100.00;55571.53;5095840;28;20058;-74
2023/07/12 11:30:41;;;;;;;16.27;10.60;;;;;;;-140.66;100.00;55571.53;5115610;28;20020;-73
2023/07/12 11:33:33;;;;;;;16.65;9.90;;;;;;;-140.66;100.00;55571.53;5116522;28;20048;-74
2023/07/12 11:36:23;;;;;;;12.80;10.05;;;;;;;-140.66;100.00;55571.53;5101567;28;20024;-73
2023/07/12 11:39:17;;;;;;;15.50;10.55;;;;;;;-140.66;100.00;55571.53;5116149;28;20031;-74
2023/07/12 11:42:08;;;;;;;13.65;10.00;;;;;;;-140.66;100.00;55571.53;5115785;28;20106;-74
2023/07/12 11:45:06;;;;;;;11.35;9.90;;;;;;;-140.66;100.00;55571.53;5102050;28;20034;-73
2023/07/12 11:47:53;;;;;;;11.10;9.38;;;;;;;-140.66;100.00;55571.53;5115343;28;20096;-73
2023/07/12 11:50:39;;;;;;;13.93;10.23;;;;;;;-140.66;100.00;55571.53;5100416;28;20027;-74
2023/07/12 11:53:25;;;;;;;18.13;10.80;;;;;;;-140.66;100.00;55571.53;5115196;28;20039;-74
2023/07/12 11:56:15;;;;;;;12.00;10.80;;;;;;;-140.66;100.00;55571.53;5115886;28;20382;-74
2023/07/12 11:59:00;;;;;;;18.27;11.50;;;;;;;-140.66;100.00;55571.53;5115613;28;20027;-74
2023/07/12 12:01:48;;;;;;;15.57;10.80;;;;;;;-140.66;100.00;55571.53;5101659;28;20019;-74
2023/07/12 12:04:34;;;;;;;20.17;11.13;;;;;;;-140.66;100.00;55571.53;5115813;28;20031;-74
2023/07/12 12:07:38;;;;;;;16.20;11.05;;;;;;;-140.66;100.00;55571.53;5116445;28;20035;-72
2023/07/12 12:10:32;;;;;;;15.00;11.50;;;;;;;-140.66;100.00;55571.53;5100734;28;20019;-73
2023/07/12 12:13:20;;;;;;;15.95;11.35;;;;;;;-140.66;100.00;55571.53;5115713;28;20409;-74
2023/07/12 12:16:19;;;;;;;17.98;10.90;;;;;;;-140.66;100.00;55571.53;5115233;28;20414;-74
2023/07/12 12:19:16;;;;;;;17.55;11.05;;;;;;;-140.66;100.00;55571.53;5099615;28;20100;-74
2023/07/12 12:22:15;;;;;;;18.88;11.50;;;;;;;-140.66;100.00;55571.53;5115634;28;20027;-74
2023/07/12 12:25:01;;;;;;;19.52;11.60;;;;;;;-140.66;100.00;55571.53;5100707;28;20039;-74
2023/07/12 12:27:48;;;;;;;18.02;11.80;;;;;;;-140.66;100.00;55571.53;5114469;28;20031;-74
2023/07/12 12:30:37;;;;;;;15.95;11.35;;;;;;;-140.66;100.00;55571.53;5099622;28;20031;-75
2023/07/12 12:33:25;;;;;;;13.15;11.10;;;;;;;-140.66;100.00;55571.53;5115300;28;20080;-73